Observation data for Olton on 03/09/2018      Previous  Date  Next       Current Mesonet Observations  Soil Data  Daily Summary Page  Observations in Plain Language
KONS 090600Z 18012KT 09/M05 A2989 RMK A01 T00851054  RH  037%=      5-min Rain = 0
KONS 090605Z 18012KT 08/M05 A2988 RMK A01 T00841054  RH  037%=      5-min Rain = 0
KONS 090610Z 18012KT 08/M05 A2988 RMK A01 T00821053  RH  038%=      5-min Rain = 0
KONS 090615Z 19013KT 08/M05 A2988 RMK A01 T00831053  RH  038%=      5-min Rain = 0
KONS 090620Z 19013KT 08/M05 A2988 RMK A01 T00841052  RH  038%=      5-min Rain = 0
KONS 090625Z 18013KT 08/M05 A2988 RMK A01 T00831052  RH  038%=      5-min Rain = 0
KONS 090630Z 18012KT 08/M05 A2988 RMK A01 T00821052  RH  039%=      5-min Rain = 0
KONS 090635Z 18012KT 08/M05 A2988 RMK A01 T00801051  RH  040%=      5-min Rain = 0
KONS 090640Z 19012KT 08/M05 A2988 RMK A01 T00791051  RH  040%=      5-min Rain = 0
KONS 090645Z 19012KT 08/M05 A2988 RMK A01 T00791050  RH  040%=      5-min Rain = 0
KONS 090650Z 19012KT 08/M05 A2988 RMK A01 T00791050  RH  040%=      5-min Rain = 0
KONS 090655Z 19011KT 08/M05 A2988 RMK A01 T00791049  RH  040%=      5-min Rain = 0
KONS 090700Z 19012KT 08/M05 A2988 RMK A01 T00781049  RH  041%=      5-min Rain = 0
KONS 090705Z 19011KT 08/M05 A2988 RMK A01 T00761048  RH  041%=      5-min Rain = 0
KONS 090710Z 20011KT 08/M05 A2988 RMK A01 T00751050  RH  041%=      5-min Rain = 0
KONS 090715Z 20011KT 07/M05 A2988 RMK A01 T00741051  RH  041%=      5-min Rain = 0
KONS 090720Z 20011KT 07/M05 A2988 RMK A01 T00721051  RH  042%=      5-min Rain = 0
KONS 090725Z 20011KT 07/M05 A2988 RMK A01 T00711050  RH  042%=      5-min Rain = 0
KONS 090730Z 20011KT 07/M05 A2988 RMK A01 T00711050  RH  042%=      5-min Rain = 0
KONS 090735Z 20010KT 07/M05 A2988 RMK A01 T00711051  RH  042%=      5-min Rain = 0
KONS 090740Z 20010KT 07/M05 A2988 RMK A01 T00691050  RH  043%=      5-min Rain = 0
KONS 090745Z 19010KT 07/M05 A2988 RMK A01 T00691050  RH  043%=      5-min Rain = 0
KONS 090750Z 20010KT 07/M05 A2987 RMK A01 T00681050  RH  043%=      5-min Rain = 0
KONS 090755Z 20010KT 07/M05 A2988 RMK A01 T00661049  RH  044%=      5-min Rain = 0
KONS 090800Z 20011KT 07/M05 A2987 RMK A01 T00651049  RH  044%=      5-min Rain = 0
KONS 090805Z 20012KT 07/M05 A2987 RMK A01 T00671049  RH  044%=      5-min Rain = 0
KONS 090810Z 20012KT 07/M05 A2987 RMK A01 T00681049  RH  044%=      5-min Rain = 0
KONS 090815Z 20012KT 07/M05 A2987 RMK A01 T00661048  RH  044%=      5-min Rain = 0
KONS 090820Z 20011KT 06/M05 A2986 RMK A01 T00631048  RH  045%=      5-min Rain = 0
KONS 090825Z 20012KT 06/M05 A2986 RMK A01 T00611047  RH  046%=      5-min Rain = 0
KONS 090830Z 20012KT 06/M05 A2986 RMK A01 T00591047  RH  047%=      5-min Rain = 0
KONS 090835Z 20011KT 06/M05 A2986 RMK A01 T00581047  RH  048%=      5-min Rain = 0
KONS 090840Z 20011KT 06/M05 A2985 RMK A01 T00561047  RH  048%=      5-min Rain = 0
KONS 090845Z 20011KT 05/M05 A2985 RMK A01 T00541046  RH  049%=      5-min Rain = 0
KONS 090850Z 21010KT 05/M05 A2985 RMK A01 T00541045  RH  049%=      5-min Rain = 0
KONS 090855Z 21010KT 05/M05 A2985 RMK A01 T00521045  RH  050%=      5-min Rain = 0
KONS 090900Z 21010KT 05/M05 A2985 RMK A01 T00501045  RH  051%=      5-min Rain = 0
KONS 090905Z 21010KT 05/M05 A2985 RMK A01 T00491046  RH  051%=      5-min Rain = 0
KONS 090910Z 21010KT 05/M05 A2985 RMK A01 T00481046  RH  051%=      5-min Rain = 0
KONS 090915Z 21010KT 05/M05 A2985 RMK A01 T00471046  RH  051%=      5-min Rain = 0
KONS 090920Z 21009KT 05/M05 A2985 RMK A01 T00471046  RH  052%=      5-min Rain = 0
KONS 090925Z 21009KT 04/M05 A2984 RMK A01 T00431046  RH  053%=      5-min Rain = 0
KONS 090930Z 22009KT 04/M05 A2984 RMK A01 T00391046  RH  054%=      5-min Rain = 0
KONS 090935Z 22009KT 04/M05 A2984 RMK A01 T00371046  RH  055%=      5-min Rain = 0
KONS 090940Z 21009KT 03/M05 A2984 RMK A01 T00341046  RH  057%=      5-min Rain = 0
KONS 090945Z 22008KT 03/M05 A2984 RMK A01 T00301047  RH  057%=      5-min Rain = 0
KONS 090950Z 22008KT 03/M05 A2984 RMK A01 T00261049  RH  058%=      5-min Rain = 0
KONS 090955Z 22007KT 02/M05 A2984 RMK A01 T00231049  RH  060%=      5-min Rain = 0
KONS 091000Z 23006KT 02/M05 A2984 RMK A01 T00181049  RH  062%=      5-min Rain = 0
KONS 091005Z 22007KT 01/M05 A2984 RMK A01 T00141047  RH  065%=      5-min Rain = 0
KONS 091010Z 22008KT 01/M05 A2984 RMK A01 T00111049  RH  065%=      5-min Rain = 0
KONS 091015Z 23008KT 01/M05 A2984 RMK A01 T00101049  RH  065%=      5-min Rain = 0
KONS 091020Z 22009KT 01/M05 A2984 RMK A01 T00111048  RH  066%=      5-min Rain = 0
KONS 091025Z 22009KT 01/M05 A2984 RMK A01 T00131046  RH  065%=      5-min Rain = 0
KONS 091030Z 23009KT 01/M05 A2984 RMK A01 T00141046  RH  065%=      5-min Rain = 0
KONS 091035Z 23010KT 02/M05 A2984 RMK A01 T00161046  RH  064%=      5-min Rain = 0
KONS 091040Z 22010KT 02/M05 A2984 RMK A01 T00191045  RH  063%=      5-min Rain = 0
KONS 091045Z 22010KT 02/M05 A2984 RMK A01 T00221046  RH  062%=      5-min Rain = 0
KONS 091050Z 22010KT 02/M05 A2983 RMK A01 T00201047  RH  061%=      5-min Rain = 0
KONS 091055Z 22010KT 02/M05 A2983 RMK A01 T00191048  RH  062%=      5-min Rain = 0
KONS 091100Z 22010KT 02/M05 A2983 RMK A01 T00201047  RH  062%=      5-min Rain = 0
KONS 091105Z 22010KT 02/M05 A2983 RMK A01 T00221048  RH  060%=      5-min Rain = 0
KONS 091110Z 22010KT 02/M05 A2983 RMK A01 T00231049  RH  060%=      5-min Rain = 0
KONS 091115Z 22010KT 02/M05 A2983 RMK A01 T00221049  RH  060%=      5-min Rain = 0
KONS 091120Z 22010KT 02/M05 A2983 RMK A01 T00211049  RH  060%=      5-min Rain = 0
KONS 091125Z 22011KT 02/M05 A2983 RMK A01 T00221049  RH  060%=      5-min Rain = 0
KONS 091130Z 22011KT 02/M05 A2983 RMK A01 T00241047  RH  060%=      5-min Rain = 0
KONS 091135Z 22011KT 03/M05 A2983 RMK A01 T00251047  RH  060%=      5-min Rain = 0
KONS 091140Z 22010KT 03/M05 A2983 RMK A01 T00251047  RH  060%=      5-min Rain = 0
KONS 091145Z 22010KT 03/M05 A2983 RMK A01 T00251049  RH  059%=      5-min Rain = 0
KONS 091150Z 22010KT 02/M05 A2983 RMK A01 T00221050  RH  060%=      5-min Rain = 0
KONS 091155Z 22009KT 02/M05 A2983 RMK A01 T00181051  RH  061%=      5-min Rain = 0
KONS 091200Z 23010KT 02/M05 A2983 RMK A01 T00161051  RH  062%=      5-min Rain = 0
KONS 091205Z 23010KT 01/M05 A2983 RMK A01 T00121050  RH  064%=      5-min Rain = 0
KONS 091210Z 22010KT 01/M05 A2983 RMK A01 T00101050  RH  065%=      5-min Rain = 0
KONS 091215Z 22010KT 01/M05 A2983 RMK A01 T00091050  RH  065%=      5-min Rain = 0
KONS 091220Z 23010KT 01/M05 A2983 RMK A01 T00071051  RH  066%=      5-min Rain = 0
KONS 091225Z 23011KT 01/M05 A2983 RMK A01 T00061050  RH  067%=      5-min Rain = 0
KONS 091230Z 23011KT 00/M05 A2983 RMK A01 T00041050  RH  068%=      5-min Rain = 0
KONS 091235Z 23011KT 00/M05 A2983 RMK A01 T00041050  RH  068%=      5-min Rain = 0
KONS 091240Z 23011KT 00/M05 A2983 RMK A01 T00041051  RH  067%=      5-min Rain = 0
KONS 091245Z 24011KT 00/M05 A2983 RMK A01 T00041052  RH  067%=      5-min Rain = 0
KONS 091250Z 23011KT 00/M05 A2983 RMK A01 T00031052  RH  067%=      5-min Rain = 0
KONS 091255Z 24011KT 00/M05 A2983 RMK A01 T00041053  RH  066%=      5-min Rain = 0
KONS 091300Z 25010KT 00/M05 A2983 RMK A01 T00041053  RH  066%=      5-min Rain = 0
KONS 091305Z 27007KT 00/M06 A2984 RMK A01 T00031055  RH  066%=      5-min Rain = 0
KONS 091310Z 27007KT 00/06 A2984 RMK A01 T00000-55  RH  067%=      5-min Rain = 0
KONS 091315Z 28008KT 00/M06 A2984 RMK A01 T00031055  RH  066%=      5-min Rain = 0
KONS 091320Z 28007KT 00/M05 A2984 RMK A01 T00021052  RH  068%=      5-min Rain = 0
KONS 091325Z 29007KT 00/M05 A2984 RMK A01 T00011054  RH  067%=      5-min Rain = 0
KONS 091330Z 30006KT 00/M05 A2985 RMK A01 T00021054  RH  067%=      5-min Rain = 0
KONS 091335Z 32006KT 00/M05 A2985 RMK A01 T00011052  RH  068%=      5-min Rain = 0
KONS 091340Z 31006KT 00/M05 A2985 RMK A01 T00031051  RH  068%=      5-min Rain = 0
KONS 091345Z 31006KT 01/M05 A2985 RMK A01 T00071051  RH  066%=      5-min Rain = 0
KONS 091350Z 31007KT 01/M05 A2985 RMK A01 T00131051  RH  063%=      5-min Rain = 0
KONS 091355Z 30008KT 02/M05 A2985 RMK A01 T00201050  RH  060%=      5-min Rain = 0
KONS 091400Z 29007KT 03/M05 A2985 RMK A01 T00281052  RH  056%=      5-min Rain = 0
KONS 091405Z 29007KT 04/M05 A2985 RMK A01 T00351049  RH  055%=      5-min Rain = 0
KONS 091410Z 30008KT 04/M05 A2985 RMK A01 T00401050  RH  052%=      5-min Rain = 0
KONS 091415Z 30007KT 04/M05 A2985 RMK A01 T00441051  RH  051%=      5-min Rain = 0
KONS 091420Z 31007KT 05/M05 A2985 RMK A01 T00481048  RH  050%=      5-min Rain = 0
KONS 091425Z 30007KT 05/M05 A2985 RMK A01 T00511050  RH  049%=      5-min Rain = 0
KONS 091430Z 31007KT 06/M05 A2985 RMK A01 T00551048  RH  048%=      5-min Rain = 0
KONS 091435Z 31007KT 06/M05 A2985 RMK A01 T00631047  RH  046%=      5-min Rain = 0
KONS 091440Z 30009KT 07/M05 A2986 RMK A01 T00691052  RH  042%=      5-min Rain = 0
KONS 091445Z 29010KT 07/M06 A2985 RMK A01 T00731055  RH  040%=      5-min Rain = 0
KONS 091450Z 29011KT 08/M06 A2985 RMK A01 T00761057  RH  039%=      5-min Rain = 0
KONS 091455Z 29010G15KT 08/M05 A2985 RMK A01 T00801052  RH  039%=      5-min Rain = 0
KONS 091500Z 29011KT 09/M06 A2985 RMK A01 T00861057  RH  036%=      5-min Rain = 0
KONS 091505Z 30013KT 09/M06 A2985 RMK A01 T00921060  RH  034%=      5-min Rain = 0
KONS 091510Z 30014KT 10/M06 A2985 RMK A01 T00981064  RH  032%=      5-min Rain = 0
KONS 091515Z 29013G18KT 10/M06 A2985 RMK A01 T01041064  RH  030%=      5-min Rain = 0
KONS 091520Z 29015KT 11/M07 A2985 RMK A01 T01111069  RH  028%=      5-min Rain = 0
KONS 091525Z 29016KT 12/M08 A2985 RMK A01 T01181076  RH  025%=      5-min Rain = 0
KONS 091530Z 29015KT 13/M08 A2985 RMK A01 T01271081  RH  023%=      5-min Rain = 0
KONS 091535Z 29014KT 13/M09 A2985 RMK A01 T01331085  RH  021%=      5-min Rain = 0
KONS 091540Z 29014G19KT 14/M09 A2985 RMK A01 T01381085  RH  021%=      5-min Rain = 0
KONS 091545Z 29015KT 14/M09 A2985 RMK A01 T01441088  RH  019%=      5-min Rain = 0
KONS 091550Z 29015KT 15/M09 A2985 RMK A01 T01451090  RH  019%=      5-min Rain = 0
KONS 091555Z 29015KT 15/M09 A2985 RMK A01 T01481092  RH  018%=      5-min Rain = 0
KONS 091600Z 29016G21KT 15/M10 A2985 RMK A01 T01531095  RH  017%=      5-min Rain = 0
KONS 091605Z 30016KT 16/M09 A2985 RMK A01 T01561093  RH  017%=      5-min Rain = 0
KONS 091610Z 29015KT 16/M10 A2984 RMK A01 T01591097  RH  017%=      5-min Rain = 0
KONS 091615Z 30014KT 17/M09 A2984 RMK A01 T01651091  RH  017%=      5-min Rain = 0
KONS 091620Z 29015G20KT 17/M10 A2984 RMK A01 T01671095  RH  016%=      5-min Rain = 0
KONS 091625Z 30016KT 17/M10 A2984 RMK A01 T01701096  RH  016%=      5-min Rain = 0
KONS 091630Z 30016KT 17/M10 A2984 RMK A01 T01691098  RH  015%=      5-min Rain = 0
KONS 091635Z 30015KT 17/M09 A2985 RMK A01 T01701092  RH  016%=      5-min Rain = 0
KONS 091640Z 30014KT 17/M09 A2985 RMK A01 T01731091  RH  016%=      5-min Rain = 0
KONS 091645Z 30012KT 18/M09 A2984 RMK A01 T01751088  RH  016%=      5-min Rain = 0
KONS 091650Z 30011KT 18/M09 A2984 RMK A01 T01811091  RH  015%=      5-min Rain = 0
KONS 091655Z 30011KT 18/M09 A2984 RMK A01 T01821094  RH  015%=      5-min Rain = 0
KONS 091700Z 31011KT 19/M09 A2984 RMK A01 T01861091  RH  015%=      5-min Rain = 0
KONS 091705Z 31011KT 19/M09 A2984 RMK A01 T01891090  RH  014%=      5-min Rain = 0
KONS 091710Z 31009KT 19/M09 A2984 RMK A01 T01931090  RH  014%=      5-min Rain = 0
KONS 091715Z 31009KT 19/M09 A2984 RMK A01 T01931090  RH  014%=      5-min Rain = 0
KONS 091720Z 31007G12KT 20/M09 A2984 RMK A01 T01951092  RH  014%=      5-min Rain = 0
KONS 091725Z 28006KT 20/M09 A2984 RMK A01 T01961088  RH  014%=      5-min Rain = 0
KONS 091730Z 26005KT 20/M09 A2984 RMK A01 T01981088  RH  014%=      5-min Rain = 0
KONS 091735Z 32004KT 20/M09 A2984 RMK A01 T02021094  RH  013%=      5-min Rain = 0
KONS 091740Z 34007KT 21/M10 A2984 RMK A01 T02071096  RH  012%=      5-min Rain = 0
KONS 091745Z 34008KT 21/M09 A2984 RMK A01 T02071092  RH  013%=      5-min Rain = 0
KONS 091750Z 35005KT 21/M09 A2984 RMK A01 T02101094  RH  012%=      5-min Rain = 0
KONS 091755Z 01009G15KT 21/M09 A2984 RMK A01 T02121094  RH  012%=      5-min Rain = 0
KONS 091800Z 35005KT 21/M10 A2984 RMK A01 T02111099  RH  012%=      5-min Rain = 0
KONS 091805Z 35002KT 21/M10 A2984 RMK A01 T02131096  RH  012%=      5-min Rain = 0
KONS 091810Z 04007KT 22/M10 A2983 RMK A01 T02161100  RH  011%=      5-min Rain = 0
KONS 091815Z 04007G12KT 22/M11 A2983 RMK A01 T02171109  RH  010%=      5-min Rain = 0
KONS 091820Z 02008G13KT 22/M11 A2983 RMK A01 T02191113  RH  010%=      5-min Rain = 0
KONS 091825Z 01006KT 22/M11 A2983 RMK A01 T02181110  RH  010%=      5-min Rain = 0
KONS 091830Z 05007G12KT 22/M11 A2982 RMK A01 T02201112  RH  010%=      5-min Rain = 0
KONS 091835Z 01009G16KT 23/M11 A2982 RMK A01 T02281108  RH  010%=      5-min Rain = 0
KONS 091840Z 01012KT 23/M11 A2982 RMK A01 T02291110  RH  010%=      5-min Rain = 0
KONS 091845Z 03009KT 23/M11 A2982 RMK A01 T02271111  RH  010%=      5-min Rain = 0
KONS 091850Z 02011KT 23/M11 A2982 RMK A01 T02341109  RH  009%=      5-min Rain = 0
KONS 091855Z 03011G16KT 23/M11 A2982 RMK A01 T02321112  RH  009%=      5-min Rain = 0
KONS 091900Z 05009G14KT 23/M12 A2981 RMK A01 T02321116  RH  009%=      5-min Rain = 0
KONS 091905Z 01009G14KT 23/M12 A2981 RMK A01 T02301117  RH  009%=      5-min Rain = 0
KONS 091910Z 06007KT 23/M12 A2981 RMK A01 T02291122  RH  009%=      5-min Rain = 0
KONS 091915Z 05009KT 23/M12 A2981 RMK A01 T02311120  RH  009%=      5-min Rain = 0
KONS 091920Z 04007KT 23/M13 A2981 RMK A01 T02281125  RH  009%=      5-min Rain = 0
KONS 091925Z 03008G13KT 23/M12 A2981 RMK A01 T02291122  RH  009%=      5-min Rain = 0
KONS 091930Z 04008G16KT 23/M12 A2981 RMK A01 T02311121  RH  009%=      5-min Rain = 0
KONS 091935Z 04004G9KT 23/M12 A298 RMK A01 T02291124  RH  009%=      5-min Rain = 0
KONS 091940Z 08008G15KT 23/M12 A298 RMK A01 T02321121  RH  009%=      5-min Rain = 0
KONS 091945Z 06010G18KT 23/M12 A298 RMK A01 T02331121  RH  009%=      5-min Rain = 0
KONS 091950Z 07008G13KT 23/M12 A298 RMK A01 T02321122  RH  009%=      5-min Rain = 0
KONS 091955Z 05008G13KT 23/M12 A298 RMK A01 T02331123  RH  008%=      5-min Rain = 0
KONS 092000Z 05006G11KT 23/M13 A298 RMK A01 T02291126  RH  008%=      5-min Rain = 0
KONS 092005Z 05007KT 23/M12 A2979 RMK A01 T02301124  RH  009%=      5-min Rain = 0
KONS 092010Z 02007KT 23/M12 A2979 RMK A01 T02321123  RH  009%=      5-min Rain = 0
KONS 092015Z 02008KT 23/M12 A2979 RMK A01 T02321123  RH  008%=      5-min Rain = 0
KONS 092020Z 02007G14KT 23/M13 A2979 RMK A01 T02311127  RH  008%=      5-min Rain = 0
KONS 092025Z 04009KT 23/M13 A2979 RMK A01 T02341125  RH  008%=      5-min Rain = 0
KONS 092030Z 36008KT 24/M12 A2979 RMK A01 T02351121  RH  009%=      5-min Rain = 0
KONS 092035Z 02007G12KT 23/M13 A2979 RMK A01 T02341127  RH  008%=      5-min Rain = 0
KONS 092040Z 03009G14KT 23/M13 A2979 RMK A01 T02341128  RH  008%=      5-min Rain = 0
KONS 092045Z 05008G14KT 23/M13 A2978 RMK A01 T02331132  RH  008%=      5-min Rain = 0
KONS 092050Z 04006KT 24/M13 A2978 RMK A01 T02361129  RH  008%=      5-min Rain = 0
KONS 092055Z 04012G18KT 24/M13 A2978 RMK A01 T02371127  RH  008%=      5-min Rain = 0
KONS 092100Z 06008KT 24/M13 A2978 RMK A01 T02351129  RH  008%=      5-min Rain = 0
KONS 092105Z 04009G14KT 24/M13 A2979 RMK A01 T02351129  RH  008%=      5-min Rain = 0
KONS 092110Z 02008KT 23/M13 A2979 RMK A01 T02331133  RH  008%=      5-min Rain = 0
KONS 092115Z 02005KT 23/M14 A2979 RMK A01 T02311135  RH  008%=      5-min Rain = 0
KONS 092120Z 02008KT 23/M13 A2979 RMK A01 T02341129  RH  008%=      5-min Rain = 0
KONS 092125Z 01007G12KT 24/M13 A2979 RMK A01 T02351129  RH  008%=      5-min Rain = 0
KONS 092130Z 35009KT 23/M12 A2979 RMK A01 T02341123  RH  008%=      5-min Rain = 0
KONS 092135Z 01008G15KT 23/M13 A2979 RMK A01 T02341127  RH  008%=      5-min Rain = 0
KONS 092140Z 03010G15KT 23/M13 A2978 RMK A01 T02331132  RH  008%=      5-min Rain = 0
KONS 092145Z 01006G11KT 23/M13 A2978 RMK A01 T02311128  RH  008%=      5-min Rain = 0
KONS 092150Z 01006KT 23/M13 A2978 RMK A01 T02301130  RH  008%=      5-min Rain = 0
KONS 092155Z 05006KT 23/M13 A2978 RMK A01 T02291131  RH  008%=      5-min Rain = 0
KONS 092200Z 00009KT 23/M12 A2978 RMK A01 T02301122  RH  009%=      5-min Rain = 0
KONS 092205Z 01006KT 23/M13 A2978 RMK A01 T02291125  RH  009%=      5-min Rain = 0
KONS 092210Z 02004KT 23/M13 A2978 RMK A01 T02301128  RH  008%=      5-min Rain = 0
KONS 092215Z 02006KT 23/M13 A2978 RMK A01 T02311131  RH  008%=      5-min Rain = 0
KONS 092220Z 01006KT 23/M12 A2978 RMK A01 T02311122  RH  009%=      5-min Rain = 0
KONS 092225Z 06006KT 23/M13 A2978 RMK A01 T02301132  RH  008%=      5-min Rain = 0
KONS 092230Z 01006KT 23/M13 A2978 RMK A01 T02281126  RH  009%=      5-min Rain = 0
KONS 092235Z 36005KT 23/M12 A2978 RMK A01 T02271120  RH  009%=      5-min Rain = 0
KONS 092240Z 01007KT 23/M12 A2978 RMK A01 T02261120  RH  009%=      5-min Rain = 0
KONS 092245Z 03008KT 22/M11 A2978 RMK A01 T02241112  RH  010%=      5-min Rain = 0
KONS 092250Z 02008KT 22/M12 A2978 RMK A01 T02241118  RH  009%=      5-min Rain = 0
KONS 092255Z 01007KT 22/M12 A2978 RMK A01 T02231121  RH  009%=      5-min Rain = 0
KONS 092300Z 03008KT 22/M12 A2978 RMK A01 T02221118  RH  009%=      5-min Rain = 0
KONS 092305Z 01008KT 22/M12 A2978 RMK A01 T02211116  RH  010%=      5-min Rain = 0
KONS 092310Z 02007KT 22/M10 A2978 RMK A01 T02201104  RH  011%=      5-min Rain = 0
KONS 092315Z 02008KT 22/M10 A2978 RMK A01 T02171104  RH  011%=      5-min Rain = 0
KONS 092320Z 03009KT 22/M11 A2977 RMK A01 T02161110  RH  010%=      5-min Rain = 0
KONS 092325Z 02008KT 22/M11 A2977 RMK A01 T02151109  RH  011%=      5-min Rain = 0
KONS 092330Z 01007KT 21/M10 A2977 RMK A01 T02121102  RH  011%=      5-min Rain = 0
KONS 092335Z 01006KT 21/M10 A2978 RMK A01 T02091095  RH  012%=      5-min Rain = 0
KONS 092340Z 00006KT 21/M10 A2978 RMK A01 T02071095  RH  012%=      5-min Rain = 0
KONS 092345Z 01007KT 20/M09 A2978 RMK A01 T02041093  RH  013%=      5-min Rain = 0
KONS 092350Z 03006KT 20/M10 A2978 RMK A01 T02031095  RH  013%=      5-min Rain = 0
KONS 092355Z 02006KT 20/M09 A2978 RMK A01 T02021094  RH  013%=      5-min Rain = 0
KONS 100000Z 02006KT 20/M09 A2978 RMK A01 T01981089  RH  014%=      5-min Rain = 0
KONS 100005Z 02007KT 19/M09 A2978 RMK A01 T01941089  RH  014%=      5-min Rain = 0
KONS 100010Z 02007KT 19/M09 A2978 RMK A01 T01901089  RH  014%=      5-min Rain = 0
KONS 100015Z 02006KT 19/M08 A2978 RMK A01 T01861082  RH  016%=      5-min Rain = 0
KONS 100020Z 02005KT 18/M08 A2978 RMK A01 T01821080  RH  016%=      5-min Rain = 0
KONS 100025Z 02005KT 18/M07 A2978 RMK A01 T01811071  RH  017%=      5-min Rain = 0
KONS 100030Z 01006KT 18/M07 A2978 RMK A01 T01781073  RH  018%=      5-min Rain = 0
KONS 100035Z 01007KT 17/M08 A2979 RMK A01 T01731079  RH  017%=      5-min Rain = 0
KONS 100040Z 03011KT 17/M10 A2979 RMK A01 T01731103  RH  014%=      5-min Rain = 0
KONS 100045Z 03009KT 17/M11 A2979 RMK A01 T01691109  RH  014%=      5-min Rain = 0
KONS 100050Z 03009KT 16/M12 A298 RMK A01 T01641115  RH  014%=      5-min Rain = 0
KONS 100055Z 03009KT 16/M11 A298 RMK A01 T01581113  RH  015%=      5-min Rain = 0
KONS 100100Z 03008KT 15/M10 A298 RMK A01 T01491102  RH  017%=      5-min Rain = 0
KONS 100105Z 02008KT 14/M10 A298 RMK A01 T01431103  RH  018%=      5-min Rain = 0
KONS 100110Z 02008KT 14/M10 A298 RMK A01 T01401104  RH  018%=      5-min Rain = 0
KONS 100115Z 02008KT 14/M10 A298 RMK A01 T01371101  RH  018%=      5-min Rain = 0
KONS 100120Z 02008KT 14/M11 A298 RMK A01 T01361107  RH  018%=      5-min Rain = 0
KONS 100125Z 02008KT 14/M11 A2981 RMK A01 T01351108  RH  018%=      5-min Rain = 0
KONS 100130Z 03008KT 13/M11 A2981 RMK A01 T01301106  RH  018%=      5-min Rain = 0
KONS 100135Z 03008KT 13/M11 A2981 RMK A01 T01301111  RH  018%=      5-min Rain = 0
KONS 100140Z 03008KT 13/M12 A2981 RMK A01 T01331115  RH  017%=      5-min Rain = 0
KONS 100145Z 03007KT 13/M11 A2982 RMK A01 T01341111  RH  017%=      5-min Rain = 0
KONS 100150Z 03006KT 13/M11 A2982 RMK A01 T01311107  RH  018%=      5-min Rain = 0
KONS 100155Z 02005KT 13/M10 A2982 RMK A01 T01281103  RH  019%=      5-min Rain = 0
KONS 100200Z 03006KT 13/M11 A2982 RMK A01 T01251107  RH  019%=      5-min Rain = 0
KONS 100205Z 04007KT 13/M11 A2982 RMK A01 T01301114  RH  017%=      5-min Rain = 0
KONS 100210Z 04006KT 14/M12 A2982 RMK A01 T01351117  RH  016%=      5-min Rain = 0
KONS 100215Z 04007KT 14/M12 A2982 RMK A01 T01381121  RH  016%=      5-min Rain = 0
KONS 100220Z 04007KT 14/M12 A2982 RMK A01 T01381120  RH  016%=      5-min Rain = 0
KONS 100225Z 04007KT 14/M12 A2982 RMK A01 T01361120  RH  016%=      5-min Rain = 0
KONS 100230Z 05008KT 13/M11 A2982 RMK A01 T01331114  RH  017%=      5-min Rain = 0
KONS 100235Z 05008KT 13/M11 A2982 RMK A01 T01271109  RH  018%=      5-min Rain = 0
KONS 100240Z 05007KT 12/M10 A2982 RMK A01 T01241103  RH  020%=      5-min Rain = 0
KONS 100245Z 05007KT 12/M10 A2983 RMK A01 T01231103  RH  020%=      5-min Rain = 0
KONS 100250Z 05008KT 12/M11 A2983 RMK A01 T01241111  RH  019%=      5-min Rain = 0
KONS 100255Z 05008KT 12/M11 A2983 RMK A01 T01241114  RH  018%=      5-min Rain = 0
KONS 100300Z 05007KT 12/M11 A2983 RMK A01 T01211107  RH  019%=      5-min Rain = 0
KONS 100305Z 05006KT 12/M10 A2983 RMK A01 T01191104  RH  020%=      5-min Rain = 0
KONS 100310Z 05006KT 12/M11 A2984 RMK A01 T01201114  RH  019%=      5-min Rain = 0
KONS 100315Z 05007KT 12/M12 A2984 RMK A01 T01211118  RH  018%=      5-min Rain = 0
KONS 100320Z 05007KT 12/M12 A2984 RMK A01 T01181118  RH  018%=      5-min Rain = 0
KONS 100325Z 06007KT 12/M12 A2984 RMK A01 T01151116  RH  019%=      5-min Rain = 0
KONS 100330Z 06008KT 11/M11 A2983 RMK A01 T01091114  RH  020%=      5-min Rain = 0
KONS 100335Z 06008KT 10/M11 A2983 RMK A01 T01021113  RH  021%=      5-min Rain = 0
KONS 100340Z 07008KT 10/M11 A2983 RMK A01 T00961113  RH  022%=      5-min Rain = 0
KONS 100345Z 07008KT 09/M12 A2983 RMK A01 T00941115  RH  022%=      5-min Rain = 0
KONS 100350Z 07008KT 09/M12 A2983 RMK A01 T00941115  RH  022%=      5-min Rain = 0
KONS 100355Z 07008KT 09/M12 A2983 RMK A01 T00921116  RH  022%=      5-min Rain = 0
KONS 100400Z 07007KT 09/M12 A2983 RMK A01 T00901118  RH  022%=      5-min Rain = 0
KONS 100405Z 07007KT 09/M12 A2983 RMK A01 T00911121  RH  021%=      5-min Rain = 0
KONS 100410Z 08007KT 09/M12 A2983 RMK A01 T00921121  RH  021%=      5-min Rain = 0
KONS 100415Z 07008KT 09/M12 A2983 RMK A01 T00911118  RH  022%=      5-min Rain = 0
KONS 100420Z 06007KT 09/M12 A2983 RMK A01 T00881118  RH  022%=      5-min Rain = 0
KONS 100425Z 07007KT 09/M12 A2984 RMK A01 T00901119  RH  022%=      5-min Rain = 0
KONS 100430Z 07007KT 09/M12 A2984 RMK A01 T00921118  RH  022%=      5-min Rain = 0
KONS 100435Z 06006KT 09/M11 A2984 RMK A01 T00911113  RH  023%=      5-min Rain = 0
KONS 100440Z 06007KT 09/M10 A2984 RMK A01 T00871101  RH  026%=      5-min Rain = 0
KONS 100445Z 06008KT 08/M10 A2983 RMK A01 T00801101  RH  027%=      5-min Rain = 0
KONS 100450Z 06008KT 07/M10 A2983 RMK A01 T00731100  RH  029%=      5-min Rain = 0
KONS 100455Z 06008KT 07/M10 A2983 RMK A01 T00701096  RH  030%=      5-min Rain = 0
KONS 100500Z 07007KT 07/M10 A2983 RMK A01 T00711099  RH  029%=      5-min Rain = 0
KONS 100505Z 07006KT 08/M10 A2984 RMK A01 T00751104  RH  027%=      5-min Rain = 0
KONS 100510Z 08006KT 08/M11 A2984 RMK A01 T00801108  RH  025%=      5-min Rain = 0
KONS 100515Z 08006KT 08/M11 A2984 RMK A01 T00801106  RH  026%=      5-min Rain = 0
KONS 100520Z 09005KT 08/M11 A2984 RMK A01 T00801107  RH  026%=      5-min Rain = 0
KONS 100525Z 08005KT 08/M11 A2984 RMK A01 T00811107  RH  026%=      5-min Rain = 0
KONS 100530Z 08006KT 08/M11 A2984 RMK A01 T00831109  RH  025%=      5-min Rain = 0
KONS 100535Z 09007KT 09/M11 A2984 RMK A01 T00851108  RH  025%=      5-min Rain = 0
KONS 100540Z 08007KT 09/M11 A2984 RMK A01 T00871107  RH  024%=      5-min Rain = 0
KONS 100545Z 08007KT 09/M11 A2984 RMK A01 T00861107  RH  025%=      5-min Rain = 0
KONS 100550Z 08006KT 09/M11 A2984 RMK A01 T00861111  RH  024%=      5-min Rain = 0
KONS 100555Z 08006KT 09/M11 A2984 RMK A01 T00861111  RH  024%=      5-min Rain = 0

Page generated in 0.0102 seconds.